Time;durP1;ratioP1;P1;durP2;ratioP2;P2;SDS_P1;SDS_P2;PMS_P1;PMS_P2;Temp;Humidity;BMP_temperature;BMP_pressure;BME280_temperature;BME280_humidity;BME280_pressure;Samples;Min_cycle;Max_cycle;Signal;HPM_P1;HPM_P2
2022/12/02 00:00:22;;;;;;;0.70;0.70;;;;;;;2.29;75.66;102289.59;4184897;28;20298;-58
2022/12/02 00:02:27;;;;;;;0.80;0.80;;;;;;;2.31;75.52;102298.34;4211871;28;20718;-58
2022/12/02 00:04:29;;;;;;;0.80;0.80;;;;;;;2.25;75.50;102293.34;4212440;28;20289;-58
2022/12/02 00:06:33;;;;;;;0.70;0.70;;;;;;;2.27;75.47;102293.28;4198186;28;20268;-58
2022/12/02 00:08:36;;;;;;;0.70;0.70;;;;;;;2.29;75.82;102294.06;4212461;28;20615;-58
2022/12/02 00:10:38;;;;;;;0.80;0.80;;;;;;;2.30;75.64;102295.78;4185019;28;20328;-58
2022/12/02 00:12:41;;;;;;;0.70;0.70;;;;;;;2.30;75.71;102283.31;4211716;28;20786;-59
2022/12/02 00:14:44;;;;;;;0.80;0.80;;;;;;;2.31;75.49;102297.50;4211990;28;20292;-58
2022/12/02 00:16:46;;;;;;;0.70;0.70;;;;;;;2.28;75.39;102287.00;4184094;28;20671;-58
2022/12/02 00:18:48;;;;;;;0.80;0.80;;;;;;;2.28;75.55;102295.84;4212539;28;20221;-59
2022/12/02 00:20:51;;;;;;;0.80;0.80;;;;;;;2.28;75.71;102290.53;4182626;28;20324;-60
2022/12/02 00:22:55;;;;;;;0.80;0.80;;;;;;;2.30;75.46;102290.44;4200757;28;20276;-61
2022/12/02 00:24:57;;;;;;;0.80;0.80;;;;;;;2.30;75.58;102294.00;4212266;28;20193;-56
2022/12/02 00:26:59;;;;;;;0.80;0.80;;;;;;;2.31;75.56;102285.03;4210756;28;20296;-57
2022/12/02 00:29:03;;;;;;;0.80;0.80;;;;;;;2.31;75.56;102286.84;4197190;28;20669;-59
2022/12/02 00:31:06;;;;;;;0.80;0.80;;;;;;;2.29;75.47;102278.91;4211462;28;20316;-58
2022/12/02 00:33:08;;;;;;;0.80;0.80;;;;;;;2.28;75.70;102285.19;4209469;28;20337;-58
2022/12/02 00:35:10;;;;;;;0.80;0.80;;;;;;;2.28;75.60;102284.34;4184487;28;20277;-59
2022/12/02 00:37:13;;;;;;;0.90;0.90;;;;;;;2.30;75.67;102279.78;4195120;28;20336;-59
2022/12/02 00:39:16;;;;;;;0.80;0.80;;;;;;;2.29;75.55;102272.75;4203354;28;20269;-58
2022/12/02 00:41:19;;;;;;;0.80;0.80;;;;;;;2.34;75.67;102270.66;4211470;28;20308;-58
2022/12/02 00:48:05;;;;;;;0.90;0.90;;;;;;;2.40;75.45;102277.44;4177056;28;20326;-58
2022/12/02 00:50:09;;;;;;;0.80;0.80;;;;;;;2.32;75.24;102260.09;4183778;28;20304;-59
2022/12/02 00:52:11;;;;;;;0.80;0.80;;;;;;;2.41;75.30;102257.84;4184104;28;20289;-56
2022/12/02 00:54:15;;;;;;;0.80;0.80;;;;;;;2.40;75.23;102256.13;4193464;28;20347;-56
2022/12/02 00:56:20;;;;;;;0.80;0.80;;;;;;;2.37;75.12;102248.28;4190427;28;20317;-61
2022/12/02 00:58:23;;;;;;;0.80;0.80;;;;;;;2.42;75.25;102259.56;4193745;28;20653;-59
2022/12/02 01:00:25;;;;;;;0.80;0.80;;;;;;;2.41;75.15;102257.84;4183963;28;20329;-58
2022/12/02 01:02:27;;;;;;;0.80;0.80;;;;;;;2.37;75.05;102254.50;4206786;28;20288;-58
2022/12/02 01:04:30;;;;;;;0.77;0.77;;;;;;;2.32;75.29;102236.09;4193609;28;20305;-58
2022/12/02 01:06:33;;;;;;;0.80;0.80;;;;;;;2.39;75.45;102263.25;4210797;28;20221;-59
2022/12/02 01:08:35;;;;;;;0.70;0.70;;;;;;;2.39;75.38;102254.41;4210314;28;20380;-58
2022/12/02 01:10:39;;;;;;;0.80;0.80;;;;;;;2.39;75.34;102254.41;4212128;28;20316;-58
2022/12/02 01:12:41;;;;;;;0.80;0.80;;;;;;;2.39;75.36;102257.09;4196829;28;20342;-59
2022/12/02 01:14:43;;;;;;;0.80;0.80;;;;;;;2.38;75.29;102252.69;4202788;28;20294;-59
2022/12/02 01:16:46;;;;;;;0.80;0.80;;;;;;;2.39;75.44;102259.75;4184861;28;20329;-58
2022/12/02 01:18:48;;;;;;;0.70;0.70;;;;;;;2.35;75.38;102248.38;4212855;28;20301;-58
2022/12/02 01:20:51;;;;;;;0.73;0.73;;;;;;;2.40;75.42;102248.13;4205031;28;20313;-57
2022/12/02 01:22:53;;;;;;;0.80;0.80;;;;;;;2.41;75.31;102253.34;4187950;28;20289;-58
2022/12/02 01:24:55;;;;;;;0.70;0.70;;;;;;;2.41;75.39;102258.69;4214609;28;20281;-60
2022/12/02 01:26:59;;;;;;;0.80;0.80;;;;;;;2.41;75.60;102255.19;4170456;28;20317;-58
2022/12/02 01:29:01;;;;;;;0.80;0.80;;;;;;;2.38;75.51;102250.00;4212548;28;20579;-57
2022/12/02 01:31:03;;;;;;;0.70;0.70;;;;;;;2.40;75.64;102251.66;4214241;28;20396;-59
2022/12/02 01:33:06;;;;;;;0.80;0.80;;;;;;;2.41;75.57;102249.84;4213770;28;20316;-58
2022/12/02 01:35:09;;;;;;;0.90;0.90;;;;;;;2.44;75.69;102257.66;4168561;28;20631;-59
2022/12/02 01:37:11;;;;;;;0.70;0.70;;;;;;;2.44;75.65;102252.34;4197524;28;20234;-59
2022/12/02 01:39:13;;;;;;;0.80;0.80;;;;;;;2.45;75.57;102256.75;4209388;28;20217;-59
2022/12/02 01:41:15;;;;;;;0.70;0.70;;;;;;;2.45;75.41;102254.91;4159668;28;20325;-58
2022/12/02 01:43:19;;;;;;;0.70;0.70;;;;;;;2.45;75.40;102256.75;4204703;28;20276;-58
2022/12/02 01:45:22;;;;;;;0.80;0.80;;;;;;;2.46;75.26;102253.09;4214414;28;20276;-56
2022/12/02 01:47:24;;;;;;;0.80;0.80;;;;;;;2.45;75.31;102249.59;4196708;28;20245;-60
2022/12/02 01:49:26;;;;;;;0.80;0.80;;;;;;;2.45;75.08;102252.25;4214671;28;20304;-58
2022/12/02 01:51:29;;;;;;;0.80;0.80;;;;;;;2.45;75.50;102262.91;4211977;28;20260;-58
2022/12/02 01:53:31;;;;;;;0.80;0.80;;;;;;;2.46;75.40;102256.66;4212948;28;20289;-55
2022/12/02 01:55:35;;;;;;;0.80;0.80;;;;;;;2.47;75.23;102244.16;4167592;28;20333;-58
2022/12/02 01:57:38;;;;;;;0.90;0.90;;;;;;;2.45;75.14;102254.91;4212082;28;20919;-57
2022/12/02 01:59:42;;;;;;;0.80;0.80;;;;;;;2.46;75.24;102256.66;4195881;28;20289;-57
2022/12/02 02:01:45;;;;;;;0.70;0.70;;;;;;;2.48;75.25;102254.75;4213092;28;20398;-58
2022/12/02 02:03:47;;;;;;;0.80;0.80;;;;;;;2.49;75.06;102255.59;4214475;28;20610;-58
2022/12/02 02:05:50;;;;;;;0.80;0.80;;;;;;;2.48;74.95;102251.22;4179196;28;20313;-57
2022/12/02 02:07:54;;;;;;;0.70;0.70;;;;;;;2.46;75.15;102245.97;4203364;28;20767;-56
2022/12/02 02:09:56;;;;;;;0.80;0.80;;;;;;;2.46;75.24;102243.31;4213809;28;20751;-58
2022/12/02 02:11:58;;;;;;;0.70;0.70;;;;;;;2.46;75.10;102239.78;4193506;28;21011;-58
2022/12/02 02:14:01;;;;;;;0.80;0.80;;;;;;;2.45;75.13;102249.59;4194997;28;20297;-57
2022/12/02 02:16:05;;;;;;;0.80;0.80;;;;;;;2.47;75.50;102238.84;4194823;28;20322;-59
2022/12/02 02:18:08;;;;;;;0.73;0.73;;;;;;;2.47;75.19;102244.16;4210448;28;20316;-58
2022/12/02 02:20:12;;;;;;;0.70;0.70;;;;;;;2.44;75.26;102247.84;4188035;28;20205;-57
2022/12/02 02:22:18;;;;;;;0.80;0.80;;;;;;;2.44;75.18;102239.00;4211876;28;20212;-58
2022/12/02 02:24:23;;;;;;;0.80;0.80;;;;;;;2.43;75.62;102232.81;4213899;28;20620;-58
2022/12/02 02:26:26;;;;;;;0.70;0.70;;;;;;;2.44;75.60;102245.19;4177798;28;20262;-57
2022/12/02 02:28:28;;;;;;;0.80;0.80;;;;;;;2.45;75.43;102243.41;4194839;28;20241;-59
2022/12/02 02:30:32;;;;;;;0.73;0.73;;;;;;;2.43;75.62;102253.28;4195314;28;20325;-58
2022/12/02 02:32:36;;;;;;;0.70;0.70;;;;;;;2.45;75.62;102251.41;4195116;28;20304;-57
2022/12/02 02:34:38;;;;;;;0.70;0.70;;;;;;;2.46;75.59;102242.44;4213778;28;20305;-58
2022/12/02 02:36:41;;;;;;;0.60;0.60;;;;;;;2.47;75.46;102239.69;4195178;28;20668;-59
2022/12/02 02:38:43;;;;;;;0.80;0.80;;;;;;;2.48;75.58;102244.06;4195468;28;20237;-59
2022/12/02 02:40:47;;;;;;;0.80;0.80;;;;;;;2.48;75.58;102244.06;4175549;28;20889;-58
2022/12/02 02:42:53;;;;;;;0.80;0.80;;;;;;;2.49;75.66;102240.47;4202606;28;20301;-58
2022/12/02 02:44:55;;;;;;;0.93;0.93;;;;;;;2.52;75.38;102242.09;4213690;28;20316;-60
2022/12/02 02:46:58;;;;;;;0.80;0.80;;;;;;;2.52;75.24;102242.97;4194429;28;20321;-58
2022/12/02 02:49:00;;;;;;;0.73;0.73;;;;;;;2.51;75.07;102246.56;4198610;28;20314;-56
2022/12/02 02:51:03;;;;;;;0.90;0.90;;;;;;;2.49;75.18;102243.16;4194704;28;20749;-57
2022/12/02 02:53:07;;;;;;;0.80;0.80;;;;;;;2.46;75.19;102242.44;4203114;28;20292;-59
2022/12/02 02:55:11;;;;;;;0.80;0.80;;;;;;;2.47;75.33;102241.50;4194595;28;20340;-57
2022/12/02 02:57:15;;;;;;;0.80;0.80;;;;;;;2.45;75.30;102236.25;4196255;28;20245;-57
2022/12/02 02:59:17;;;;;;;0.80;0.80;;;;;;;2.45;75.37;102238.91;4213780;28;20340;-58
2022/12/02 03:01:25;;;;;;;0.70;0.70;;;;;;;2.46;75.67;102243.31;4211049;28;20304;-58
2022/12/02 03:03:31;;;;;;;0.70;0.70;;;;;;;2.47;75.51;102241.50;4195387;28;20230;-57
2022/12/02 03:05:35;;;;;;;0.80;0.80;;;;;;;2.45;75.37;102238.91;4193571;28;20328;-58
2022/12/02 03:07:38;;;;;;;0.80;0.80;;;;;;;2.40;75.33;102229.44;4205881;28;20679;-58
2022/12/02 03:09:40;;;;;;;0.80;0.80;;;;;;;2.46;75.43;102237.09;4188743;28;20235;-58
2022/12/02 03:11:45;;;;;;;0.70;0.70;;;;;;;2.43;75.40;102227.50;4210728;28;20304;-58
2022/12/02 03:13:50;;;;;;;0.80;0.80;;;;;;;2.47;75.48;102236.16;4212184;28;20224;-59
2022/12/02 03:15:53;;;;;;;0.80;0.80;;;;;;;2.44;75.35;102234.53;4210642;28;20853;-57
2022/12/02 03:17:56;;;;;;;0.70;0.70;;;;;;;2.44;75.58;102234.53;4213267;28;20309;-59
2022/12/02 03:20:02;;;;;;;0.80;0.80;;;;;;;2.42;75.66;102225.75;4211212;28;20836;-58
2022/12/02 03:22:04;;;;;;;0.80;0.80;;;;;;;2.45;75.42;102230.06;4201559;28;20702;-58
2022/12/02 03:24:07;;;;;;;0.80;0.80;;;;;;;2.44;75.51;102223.84;4213313;28;20281;-58
2022/12/02 03:26:10;;;;;;;0.90;0.90;;;;;;;2.44;75.59;102228.34;4174936;28;20317;-59
2022/12/02 03:28:12;;;;;;;0.73;0.73;;;;;;;2.44;75.44;102225.66;4204960;28;20308;-58
2022/12/02 03:30:16;;;;;;;1.00;1.00;;;;;;;2.42;75.42;102228.44;4212490;28;20237;-58
2022/12/02 03:32:19;;;;;;;0.70;0.70;;;;;;;2.40;75.52;102221.44;4213272;28;20292;-56
2022/12/02 03:34:21;;;;;;;0.80;0.80;;;;;;;2.40;75.63;102227.66;4212564;28;20691;-57
2022/12/02 03:36:24;;;;;;;0.70;0.70;;;;;;;2.39;75.57;102225.94;4211937;28;20316;-57
2022/12/02 03:38:26;;;;;;;0.70;0.70;;;;;;;2.37;75.68;102225.16;4213131;28;20304;-57
2022/12/02 03:40:29;;;;;;;14.57;13.53;;;;;;;2.35;75.82;102216.38;4212238;28;20315;-57
2022/12/02 03:42:32;;;;;;;0.80;0.80;;;;;;;2.37;75.77;102222.50;4212596;28;20941;-58
2022/12/02 03:44:34;;;;;;;0.80;0.80;;;;;;;2.39;76.13;102220.59;4212907;28;20285;-59
2022/12/02 03:46:38;;;;;;;0.80;0.80;;;;;;;2.38;75.70;102210.88;4211440;28;20308;-59
2022/12/02 03:48:40;;;;;;;0.90;0.90;;;;;;;2.35;76.13;102208.38;4212978;28;20308;-59
2022/12/02 03:50:43;;;;;;;0.80;0.80;;;;;;;2.40;75.96;102208.13;4185965;28;20726;-58
2022/12/02 03:52:48;;;;;;;0.60;0.60;;;;;;;2.41;76.07;102208.03;4209857;28;20268;-57
2022/12/02 03:54:51;;;;;;;0.80;0.80;;;;;;;2.43;75.63;102200.81;4212091;28;20284;-58
2022/12/02 03:56:53;;;;;;;7.07;6.63;;;;;;;2.44;75.34;102204.34;4211698;28;20320;-58
2022/12/02 03:58:55;;;;;;;0.80;0.80;;;;;;;2.44;75.38;102209.66;4212646;28;20702;-60
2022/12/02 04:00:58;;;;;;;0.70;0.70;;;;;;;2.45;75.05;102206.91;4211065;28;20293;-58
2022/12/02 04:03:01;;;;;;;0.80;0.80;;;;;;;2.44;74.74;102212.34;4211758;28;20294;-57
2022/12/02 04:05:04;;;;;;;0.80;0.80;;;;;;;2.45;74.82;102209.59;4185205;28;20305;-57
2022/12/02 04:07:06;;;;;;;0.70;0.70;;;;;;;2.44;74.43;102205.19;4197806;28;20313;-59
2022/12/02 04:09:09;;;;;;;0.80;0.80;;;;;;;2.42;74.38;102201.75;4212590;28;20281;-57
2022/12/02 04:11:11;;;;;;;0.80;0.80;;;;;;;2.44;74.16;102196.34;4184796;28;20920;-58
2022/12/02 04:13:13;;;;;;;0.80;0.80;;;;;;;2.45;74.12;102206.91;4211871;28;20308;-59
2022/12/02 04:15:16;;;;;;;0.77;0.77;;;;;;;2.45;73.74;102204.25;4211387;28;20289;-59
2022/12/02 04:17:18;;;;;;;0.77;0.77;;;;;;;2.46;73.38;102205.09;4212343;28;20653;-57
2022/12/02 04:19:22;;;;;;;0.80;0.80;;;;;;;2.47;73.54;102207.69;4212646;28;20281;-58
2022/12/02 04:21:24;;;;;;;0.70;0.70;;;;;;;2.47;73.28;102213.00;4172752;28;20334;-59
2022/12/02 04:23:26;;;;;;;0.80;0.80;;;;;;;2.46;73.15;102208.66;4189595;28;20306;-58
2022/12/02 04:25:29;;;;;;;0.70;0.70;;;;;;;2.43;73.10;102200.81;4210530;28;20657;-57
2022/12/02 04:27:31;;;;;;;0.80;0.80;;;;;;;2.45;73.04;102203.41;4212309;28;20313;-58
2022/12/02 04:29:33;;;;;;;0.77;0.77;;;;;;;2.43;72.96;102205.28;4210516;28;20293;-60
2022/12/02 04:31:36;;;;;;;0.80;0.80;;;;;;;2.40;72.97;102198.31;4211321;28;20305;-60
2022/12/02 04:33:38;;;;;;;0.80;0.80;;;;;;;2.44;73.00;102201.66;4211970;28;20309;-60
2022/12/02 04:35:41;;;;;;;0.80;0.80;;;;;;;2.44;73.06;102199.00;4201182;28;20260;-59
2022/12/02 04:37:44;;;;;;;0.70;0.70;;;;;;;2.43;73.21;102200.81;4209086;28;20304;-59
2022/12/02 04:39:46;;;;;;;0.70;0.70;;;;;;;2.44;73.22;102207.84;4212432;28;20289;-60
2022/12/02 04:41:48;;;;;;;0.70;0.70;;;;;;;2.45;73.19;102201.59;4211423;28;20654;-59
2022/12/02 04:43:50;;;;;;;0.70;0.70;;;;;;;2.44;73.36;102205.19;4212242;28;20281;-59
2022/12/02 04:45:53;;;;;;;0.90;0.90;;;;;;;2.41;72.92;102205.34;4183779;28;20361;-57
2022/12/02 04:47:55;;;;;;;0.80;0.80;;;;;;;2.39;73.46;102204.59;4211705;28;20300;-59
2022/12/02 04:49:57;;;;;;;0.70;0.70;;;;;;;2.37;73.74;102205.63;4212392;28;20300;-58
2022/12/02 04:52:01;;;;;;;0.80;0.80;;;;;;;2.37;73.93;102206.50;4200238;28;20226;-58
2022/12/02 04:54:03;;;;;;;0.80;0.80;;;;;;;2.38;74.13;102207.34;4210075;28;20272;-58
2022/12/02 04:56:06;;;;;;;0.80;0.80;;;;;;;2.38;74.08;102204.69;4210542;28;20301;-58
2022/12/02 04:58:08;;;;;;;0.80;0.80;;;;;;;2.36;74.27;102211.94;4211736;28;20317;-56
2022/12/02 05:00:12;;;;;;;0.80;0.80;;;;;;;2.34;74.68;102206.69;4182531;28;20272;-59
2022/12/02 05:02:14;;;;;;;0.80;0.80;;;;;;;2.34;74.86;102202.19;4195262;28;20747;-59
2022/12/02 05:04:16;;;;;;;0.80;0.80;;;;;;;2.34;74.80;102196.00;4212045;28;20276;-57
2022/12/02 05:06:19;;;;;;;0.80;0.80;;;;;;;2.35;74.99;102197.72;4210365;28;20794;-58
2022/12/02 05:08:22;;;;;;;0.80;0.80;;;;;;;2.31;75.18;102198.84;4193569;28;20680;-59
2022/12/02 05:10:24;;;;;;;0.70;0.70;;;;;;;2.33;75.17;102196.94;4210770;28;20333;-57
2022/12/02 05:12:27;;;;;;;0.90;0.90;;;;;;;2.32;75.13;102193.44;4213175;28;20206;-59
2022/12/02 05:14:29;;;;;;;0.80;0.80;;;;;;;2.33;75.38;102188.94;4203290;28;20282;-59
2022/12/02 05:16:32;;;;;;;0.80;0.80;;;;;;;2.29;75.51;102188.28;4206632;28;20300;-57
2022/12/02 05:18:34;;;;;;;0.70;0.70;;;;;;;2.30;75.67;102190.00;4211825;28;20329;-57
2022/12/02 05:20:36;;;;;;;0.80;0.80;;;;;;;2.30;75.76;102184.66;4209469;28;20316;-59
2022/12/02 05:22:39;;;;;;;0.80;0.80;;;;;;;2.32;75.56;102189.88;4210310;28;20281;-59
2022/12/02 05:24:42;;;;;;;0.83;0.83;;;;;;;2.31;75.74;102180.19;4212247;28;20629;-58
2022/12/02 05:26:44;;;;;;;0.80;0.80;;;;;;;2.34;75.71;102193.34;4210576;28;20329;-58
2022/12/02 05:28:47;;;;;;;0.70;0.70;;;;;;;2.34;75.60;102188.88;4210685;28;20276;-59
2022/12/02 05:30:49;;;;;;;0.80;0.80;;;;;;;2.35;75.42;102192.38;4184474;28;20688;-58
2022/12/02 05:32:51;;;;;;;0.80;0.80;;;;;;;2.36;75.34;102185.25;4208628;28;20225;-59
2022/12/02 05:34:53;;;;;;;0.70;0.70;;;;;;;2.36;75.36;102185.25;4211733;28;20282;-60
2022/12/02 05:36:56;;;;;;;0.70;0.70;;;;;;;2.37;75.25;102201.16;4178709;28;20304;-60
2022/12/02 05:38:58;;;;;;;0.70;0.70;;;;;;;2.38;75.21;102194.03;4206555;28;20732;-60
2022/12/02 05:41:02;;;;;;;0.80;0.80;;;;;;;2.36;75.07;102188.78;4208592;28;20296;-58
2022/12/02 05:43:15;;;;;;;0.80;0.80;;;;;;;2.38;74.82;102192.19;4210905;28;20280;-58
2022/12/02 05:45:20;;;;;;;0.70;0.70;;;;;;;2.41;74.96;102196.50;4210784;28;20286;-59
2022/12/02 05:47:23;;;;;;;0.80;0.80;;;;;;;2.43;74.40;102190.16;4192907;28;20313;-59
2022/12/02 05:49:25;;;;;;;0.80;0.80;;;;;;;2.42;74.18;102192.91;4211046;28;20735;-58
2022/12/02 05:51:27;;;;;;;0.80;0.80;;;;;;;2.41;74.22;102185.84;4210731;28;20751;-58
2022/12/02 05:53:30;;;;;;;0.80;0.80;;;;;;;2.41;74.01;102181.34;4211325;28;20285;-58
2022/12/02 05:55:32;;;;;;;0.80;0.80;;;;;;;2.42;73.83;102183.09;4209670;28;20325;-58
2022/12/02 05:57:36;;;;;;;0.80;0.80;;;;;;;2.44;73.67;102183.00;4212311;28;20305;-59
2022/12/02 05:59:38;;;;;;;0.80;0.80;;;;;;;2.41;73.67;102175.19;4202888;28;20313;-58
2022/12/02 06:01:46;;;;;;;0.70;0.70;;;;;;;2.45;73.35;102174.06;4182117;28;20354;-57
2022/12/02 06:03:49;;;;;;;0.90;0.90;;;;;;;2.45;73.05;102182.91;4212706;28;20391;-60
2022/12/02 06:05:53;;;;;;;1.03;1.03;;;;;;;2.43;72.93;102170.59;4181421;28;20288;-59
2022/12/02 06:07:58;;;;;;;1.10;1.10;;;;;;;2.45;72.64;102177.56;4212955;28;20321;-59
2022/12/02 06:10:00;;;;;;;7.20;6.90;;;;;;;2.45;72.67;102182.06;4200683;28;20292;-59
2022/12/02 06:12:02;;;;;;;21.60;20.67;;;;;;;2.39;72.99;102171.75;4208534;28;20300;-60
2022/12/02 06:14:15;;;;;;;67.37;63.33;;;;;;;2.46;72.78;102183.75;4214640;28;20280;-60
2022/12/02 06:16:24;;;;;;;0.87;0.87;;;;;;;2.46;72.74;102181.09;4186997;28;20320;-60
2022/12/02 06:18:28;;;;;;;1.57;1.57;;;;;;;2.46;73.03;102189.97;4205248;28;20658;-58
2022/12/02 06:20:35;;;;;;;12.57;12.00;;;;;;;2.44;72.78;102186.50;4206797;28;21017;-59
2022/12/02 06:22:41;;;;;;;0.80;0.80;;;;;;;2.45;72.87;102192.72;4213343;28;20204;-61
2022/12/02 06:24:43;;;;;;;50.10;46.90;;;;;;;2.44;72.68;102194.53;4211705;28;20284;-57
2022/12/02 06:26:45;;;;;;;1.73;1.73;;;;;;;2.44;72.59;102199.84;4212986;28;20316;-58
2022/12/02 06:28:50;;;;;;;64.47;60.83;;;;;;;2.46;72.28;102207.75;4211573;28;20277;-60
2022/12/02 06:30:55;;;;;;;67.73;61.90;;;;;;;2.46;72.42;102213.97;4211298;28;20771;-58
2022/12/02 06:32:59;;;;;;;3.67;3.37;;;;;;;2.45;72.53;102196.25;4213173;28;20318;-60
2022/12/02 06:35:05;;;;;;;0.90;0.90;;;;;;;2.47;72.32;102194.34;4211910;28;20213;-60
2022/12/02 06:37:14;;;;;;;0.90;0.90;;;;;;;2.46;72.28;102205.09;4194256;28;20313;-59
2022/12/02 06:39:21;;;;;;;0.77;0.77;;;;;;;2.47;72.28;102201.50;4213314;28;20276;-59
2022/12/02 06:41:26;;;;;;;0.80;0.80;;;;;;;2.48;72.23;102201.41;4192482;28;20301;-59
2022/12/02 06:43:30;;;;;;;0.90;0.90;;;;;;;2.48;72.10;102211.22;4214116;28;20284;-59
2022/12/02 06:45:33;;;;;;;44.23;42.07;;;;;;;2.48;71.95;102208.56;4212419;28;20798;-59
2022/12/02 06:47:53;;;;;;;0.80;0.80;;;;;;;2.49;72.18;102212.91;4194216;28;20300;-58
2022/12/02 06:49:55;;;;;;;20.13;19.17;;;;;;;2.48;72.04;102205.91;4205187;28;20281;-58
2022/12/02 06:51:59;;;;;;;0.80;0.80;;;;;;;2.49;72.06;102200.47;4185795;28;20316;-61
2022/12/02 06:54:04;;;;;;;0.70;0.70;;;;;;;2.48;72.09;102214.75;4211516;28;20269;-58
2022/12/02 06:56:14;;;;;;;0.90;0.90;;;;;;;2.50;72.05;102209.31;4212783;28;20396;-59
2022/12/02 06:58:27;;;;;;;0.80;0.80;;;;;;;2.47;72.25;102201.50;4213308;28;20644;-58
2022/12/02 07:00:31;;;;;;;1.17;1.17;;;;;;;2.50;72.22;102212.00;4212596;28;20635;-59
2022/12/02 07:02:34;;;;;;;0.80;0.80;;;;;;;2.49;72.45;102205.81;4188450;28;20818;-58
2022/12/02 07:04:42;;;;;;;0.80;0.80;;;;;;;2.52;72.29;102210.09;4201966;28;20274;-60
2022/12/02 07:06:46;;;;;;;0.70;0.70;;;;;;;2.52;72.19;102205.63;4201004;28;20884;-63
2022/12/02 07:08:49;;;;;;;0.70;0.70;;;;;;;2.53;72.21;102198.47;4208789;28;20871;-60
2022/12/02 07:10:51;;;;;;;0.70;0.70;;;;;;;2.53;72.43;102206.47;4197132;28;20318;-60
2022/12/02 07:12:56;;;;;;;0.80;0.80;;;;;;;2.49;72.62;102189.81;4211695;28;20276;-61
2022/12/02 07:15:00;;;;;;;0.70;0.70;;;;;;;2.51;72.47;102197.72;4210291;28;20442;-60
2022/12/02 07:17:03;;;;;;;0.80;0.80;;;;;;;2.48;72.50;102195.22;4214136;28;20628;-57
2022/12/02 07:19:10;;;;;;;2.80;2.70;;;;;;;2.48;72.35;102196.06;4221779;28;20277;-59
2022/12/02 07:21:14;;;;;;;0.80;0.80;;;;;;;2.51;72.53;102198.56;4213573;28;20372;-60
2022/12/02 07:23:20;;;;;;;1.23;1.23;;;;;;;2.52;72.37;102199.41;4213387;28;20289;-58
2022/12/02 07:25:34;;;;;;;0.70;0.70;;;;;;;2.53;72.36;102194.00;4194441;28;20317;-60
2022/12/02 07:27:38;;;;;;;0.80;0.80;;;;;;;2.52;72.08;102189.63;4213830;28;20766;-58
2022/12/02 07:29:40;;;;;;;0.70;0.70;;;;;;;2.52;72.17;102194.97;4209002;28;20273;-60
2022/12/02 07:31:43;;;;;;;37.60;35.70;;;;;;;2.50;72.17;102195.97;4212478;28;20313;-58
2022/12/02 07:33:45;;;;;;;20.83;19.77;;;;;;;2.52;72.12;102200.28;4195462;28;20305;-59
2022/12/02 07:35:48;;;;;;;20.57;19.07;;;;;;;2.51;72.36;102195.91;4212546;28;20333;-59
2022/12/02 07:37:51;;;;;;;1.00;1.00;;;;;;;2.52;72.17;102197.63;4213003;28;20274;-57
2022/12/02 07:39:54;;;;;;;6.03;5.73;;;;;;;2.55;72.02;102201.06;4202906;28;20236;-61
2022/12/02 07:41:56;;;;;;;78.47;73.93;;;;;;;2.56;72.18;102203.63;4209614;28;20292;-57
2022/12/02 07:43:58;;;;;;;1.00;1.00;;;;;;;2.57;72.30;102209.81;4203209;28;20288;-56
2022/12/02 07:46:00;;;;;;;3.10;3.00;;;;;;;2.58;72.37;102211.53;4208957;28;20312;-59
2022/12/02 07:48:03;;;;;;;0.80;0.80;;;;;;;2.59;72.42;102214.13;4206085;28;20312;-59
2022/12/02 07:50:07;;;;;;;2.10;2.00;;;;;;;2.58;72.37;102215.06;4211641;28;20272;-59
2022/12/02 07:52:09;;;;;;;64.73;56.80;;;;;;;2.58;72.16;102208.88;4212923;28;20292;-58
2022/12/02 07:54:13;;;;;;;1.73;1.73;;;;;;;2.57;72.41;102207.16;4211979;28;20746;-58
2022/12/02 07:56:15;;;;;;;134.60;126.73;;;;;;;2.58;72.69;102203.53;4207723;28;20333;-60
2022/12/02 07:58:17;;;;;;;3.60;3.50;;;;;;;2.57;72.88;102202.69;4210499;28;20220;-58
2022/12/02 08:00:21;;;;;;;8.40;8.07;;;;;;;2.53;72.89;102199.31;4211652;28;20308;-57
2022/12/02 08:02:23;;;;;;;32.70;30.93;;;;;;;2.54;72.99;102210.88;4191940;28;20277;-58
2022/12/02 08:04:26;;;;;;;0.70;0.70;;;;;;;2.55;73.12;102219.72;4210383;28;20276;-59
2022/12/02 08:06:28;;;;;;;0.70;0.70;;;;;;;2.53;73.26;102210.00;4211618;28;20320;-57
2022/12/02 08:08:30;;;;;;;8.13;7.50;;;;;;;2.52;73.53;102210.09;4211659;28;20312;-56
2022/12/02 08:10:34;;;;;;;0.90;0.90;;;;;;;2.50;73.67;102207.50;4210092;28;20738;-58
2022/12/02 08:12:37;;;;;;;0.80;0.80;;;;;;;2.50;73.95;102209.31;4207628;28;20303;-59
2022/12/02 08:14:40;;;;;;;111.37;103.87;;;;;;;2.51;74.12;102214.56;4210973;28;20288;-59
2022/12/02 08:16:42;;;;;;;0.70;0.70;;;;;;;2.52;74.16;102212.75;4210401;28;21059;-60
2022/12/02 08:18:44;;;;;;;9.23;8.80;;;;;;;2.52;74.04;102213.63;4209473;28;20225;-57
2022/12/02 08:20:46;;;;;;;0.90;0.90;;;;;;;2.51;74.04;102211.06;4177772;28;20309;-58
2022/12/02 08:22:48;;;;;;;11.13;5.50;;;;;;;2.49;74.14;102208.47;4204636;28;20281;-59
2022/12/02 08:24:51;;;;;;;0.70;0.70;;;;;;;2.49;74.50;102205.81;4212143;28;20292;-61
2022/12/02 08:26:54;;;;;;;0.70;0.70;;;;;;;2.48;74.41;102212.06;4197140;28;20317;-59
2022/12/02 08:28:57;;;;;;;6.67;6.40;;;;;;;2.48;74.44;102208.56;4202827;28;20771;-58
2022/12/02 08:30:59;;;;;;;3.70;3.60;;;;;;;2.48;74.53;102197.88;4196521;28;20302;-60
2022/12/02 08:33:01;;;;;;;0.70;0.70;;;;;;;2.49;74.79;102205.81;4206050;28;20321;-58
2022/12/02 08:35:04;;;;;;;1.10;1.10;;;;;;;2.50;74.67;102196.84;4203560;28;20297;-61
2022/12/02 08:37:06;;;;;;;1.00;1.00;;;;;;;2.51;74.72;102201.22;4202588;28;20316;-57
2022/12/02 08:39:09;;;;;;;47.87;45.60;;;;;;;2.53;74.55;102212.66;4200639;28;20232;-59
2022/12/02 08:41:12;;;;;;;1.20;1.20;;;;;;;2.51;74.68;102206.56;4208748;28;20675;-57
2022/12/02 08:43:15;;;;;;;129.27;122.83;;;;;;;2.55;74.44;102211.72;4207537;28;20281;-59
2022/12/02 08:45:18;;;;;;;228.33;215.27;;;;;;;2.56;74.40;102216.97;4211477;28;20312;-59
2022/12/02 08:47:20;;;;;;;455.63;424.60;;;;;;;2.55;74.55;102204.56;4212321;28;20296;-61
2022/12/02 08:49:22;;;;;;;618.67;570.43;;;;;;;2.55;74.35;102209.91;4198579;28;20280;-59
2022/12/02 08:51:25;;;;;;;557.23;516.20;;;;;;;2.55;74.74;102209.06;4210064;28;20308;-60
2022/12/02 08:53:27;;;;;;;356.27;326.77;;;;;;;2.57;74.74;102215.16;4205313;28;20300;-60
2022/12/02 08:55:29;;;;;;;448.23;414.50;;;;;;;2.55;74.41;102217.06;4198232;28;20318;-59
2022/12/02 08:57:31;;;;;;;615.00;564.87;;;;;;;2.57;74.30;102217.81;4211983;28;20300;-59
2022/12/02 08:59:35;;;;;;;605.87;555.27;;;;;;;2.56;74.41;102214.31;4207768;28;20241;-58
2022/12/02 09:01:37;;;;;;;547.93;500.33;;;;;;;2.56;74.22;102213.44;4206159;28;20316;-59
2022/12/02 09:03:40;;;;;;;588.03;543.60;;;;;;;2.54;74.18;102210.88;4212092;28;20282;-56
2022/12/02 09:05:42;;;;;;;576.97;524.70;;;;;;;2.57;74.24;102208.03;4205384;28;20309;-60
2022/12/02 09:07:44;;;;;;;588.87;532.93;;;;;;;2.57;74.14;102191.16;4211034;28;20320;-58
2022/12/02 09:09:46;;;;;;;600.80;547.20;;;;;;;2.61;73.88;102204.22;4210687;28;20294;-59
2022/12/02 09:11:49;;;;;;;560.20;514.67;;;;;;;2.63;73.73;102209.47;4181818;28;20308;-59
2022/12/02 09:13:51;;;;;;;606.37;559.80;;;;;;;2.60;73.43;102204.31;4208222;28;20883;-60
2022/12/02 09:15:55;;;;;;;24.77;22.23;;;;;;;2.61;73.33;102208.69;4210974;28;20313;-59
2022/12/02 09:17:57;;;;;;;0.70;0.70;;;;;;;2.63;73.43;102201.47;4211692;28;20305;-60
2022/12/02 09:19:59;;;;;;;33.63;30.67;;;;;;;2.63;73.34;102201.47;4209046;28;20194;-58
2022/12/02 09:22:01;;;;;;;158.43;147.93;;;;;;;2.65;72.97;102196.88;4211150;28;20297;-59
2022/12/02 09:24:04;;;;;;;13.43;12.67;;;;;;;2.65;72.58;102202.22;4210167;28;20644;-58
2022/12/02 09:26:06;;;;;;;3.43;3.27;;;;;;;2.67;72.28;102209.19;4206961;28;20306;-59
2022/12/02 09:28:09;;;;;;;24.27;23.07;;;;;;;2.68;72.13;102199.38;4201010;28;20296;-57
2022/12/02 09:30:11;;;;;;;173.93;164.87;;;;;;;2.69;72.09;102201.94;4209964;28;20281;-58
2022/12/02 09:32:15;;;;;;;237.00;224.37;;;;;;;2.71;72.05;102204.53;4210779;28;20641;-59
2022/12/02 09:34:18;;;;;;;216.17;206.10;;;;;;;2.70;71.81;102208.16;4207762;28;20652;-60
2022/12/02 09:36:21;;;;;;;98.30;93.10;;;;;;;2.72;71.59;102210.75;4209572;28;20301;-56
2022/12/02 09:38:23;;;;;;;326.53;307.47;;;;;;;2.73;71.48;102212.44;4214852;28;20293;-58
2022/12/02 09:40:25;;;;;;;254.23;238.33;;;;;;;2.72;71.43;102208.09;4214412;28;20237;-60